sensor_id;sensor_type;location;lat;lon;timestamp;temperature;humidity
20921;DHT22;10620;52.472;21.028;2023-01-24T00:01:20;1.40;99.90
20921;DHT22;10620;52.472;21.028;2023-01-24T00:03:50;1.40;99.90
20921;DHT22;10620;52.472;21.028;2023-01-24T00:06:19;1.40;99.90
20921;DHT22;10620;52.472;21.028;2023-01-24T00:08:47;1.40;99.90
20921;DHT22;10620;52.472;21.028;2023-01-24T00:11:16;1.40;99.90
20921;DHT22;10620;52.472;21.028;2023-01-24T00:13:45;1.30;99.90
20921;DHT22;10620;52.472;21.028;2023-01-24T00:16:14;1.50;99.90
20921;DHT22;10620;52.472;21.028;2023-01-24T00:18:43;1.40;99.90
20921;DHT22;10620;52.472;21.028;2023-01-24T00:21:15;1.50;99.90
20921;DHT22;10620;52.472;21.028;2023-01-24T00:23:44;1.50;99.90
20921;DHT22;10620;52.472;21.028;2023-01-24T00:26:13;1.40;99.90
20921;DHT22;10620;52.472;21.028;2023-01-24T00:28:43;1.50;99.90
20921;DHT22;10620;52.472;21.028;2023-01-24T00:31:12;1.50;99.90
20921;DHT22;10620;52.472;21.028;2023-01-24T00:33:41;1.40;99.90
20921;DHT22;10620;52.472;21.028;2023-01-24T00:36:10;1.50;99.90
20921;DHT22;10620;52.472;21.028;2023-01-24T00:38:40;1.50;99.90
20921;DHT22;10620;52.472;21.028;2023-01-24T00:41:09;1.40;99.90
20921;DHT22;10620;52.472;21.028;2023-01-24T00:43:37;1.40;99.90
20921;DHT22;10620;52.472;21.028;2023-01-24T00:46:06;1.50;99.90
20921;DHT22;10620;52.472;21.028;2023-01-24T00:48:36;1.50;99.90
20921;DHT22;10620;52.472;21.028;2023-01-24T00:51:05;1.50;99.90
20921;DHT22;10620;52.472;21.028;2023-01-24T00:53:34;1.40;99.90
20921;DHT22;10620;52.472;21.028;2023-01-24T00:56:05;1.40;99.90
20921;DHT22;10620;52.472;21.028;2023-01-24T00:58:33;1.40;99.90
20921;DHT22;10620;52.472;21.028;2023-01-24T01:01:02;1.50;99.90
20921;DHT22;10620;52.472;21.028;2023-01-24T01:03:31;1.60;99.90
20921;DHT22;10620;52.472;21.028;2023-01-24T01:06:00;1.50;99.90
20921;DHT22;10620;52.472;21.028;2023-01-24T01:08:30;1.50;99.90
20921;DHT22;10620;52.472;21.028;2023-01-24T01:10:58;1.50;99.90
20921;DHT22;10620;52.472;21.028;2023-01-24T01:13:30;1.60;99.90
20921;DHT22;10620;52.472;21.028;2023-01-24T01:16:02;1.70;99.90
20921;DHT22;10620;52.472;21.028;2023-01-24T01:18:31;1.60;99.90
20921;DHT22;10620;52.472;21.028;2023-01-24T01:21:00;1.60;99.90
20921;DHT22;10620;52.472;21.028;2023-01-24T01:23:29;1.50;99.90
20921;DHT22;10620;52.472;21.028;2023-01-24T01:25:58;1.40;99.90
20921;DHT22;10620;52.472;21.028;2023-01-24T01:28:28;1.40;99.90
20921;DHT22;10620;52.472;21.028;2023-01-24T01:30:58;1.40;99.90
20921;DHT22;10620;52.472;21.028;2023-01-24T01:33:27;1.50;99.90
20921;DHT22;10620;52.472;21.028;2023-01-24T01:35:57;1.50;99.90
20921;DHT22;10620;52.472;21.028;2023-01-24T01:38:25;1.50;99.90
20921;DHT22;10620;52.472;21.028;2023-01-24T01:40:55;1.50;99.90
20921;DHT22;10620;52.472;21.028;2023-01-24T01:43:25;1.50;99.90
20921;DHT22;10620;52.472;21.028;2023-01-24T01:45:54;1.40;99.90
20921;DHT22;10620;52.472;21.028;2023-01-24T01:48:29;1.40;99.90
20921;DHT22;10620;52.472;21.028;2023-01-24T01:51:02;1.40;99.90
20921;DHT22;10620;52.472;21.028;2023-01-24T01:53:34;1.40;99.90
20921;DHT22;10620;52.472;21.028;2023-01-24T01:56:05;1.40;99.90
20921;DHT22;10620;52.472;21.028;2023-01-24T01:58:35;1.50;99.90
20921;DHT22;10620;52.472;21.028;2023-01-24T02:01:04;1.50;99.90
20921;DHT22;10620;52.472;21.028;2023-01-24T02:03:36;1.50;99.90
20921;DHT22;10620;52.472;21.028;2023-01-24T02:06:10;1.50;99.90
20921;DHT22;10620;52.472;21.028;2023-01-24T02:08:41;1.60;99.90
20921;DHT22;10620;52.472;21.028;2023-01-24T02:11:11;1.50;99.90
20921;DHT22;10620;52.472;21.028;2023-01-24T02:13:57;1.50;99.90
20921;DHT22;10620;52.472;21.028;2023-01-24T02:16:40;1.50;99.90
20921;DHT22;10620;52.472;21.028;2023-01-24T02:19:11;1.50;99.90
20921;DHT22;10620;52.472;21.028;2023-01-24T02:21:44;1.40;99.90
20921;DHT22;10620;52.472;21.028;2023-01-24T02:24:14;1.50;99.90
20921;DHT22;10620;52.472;21.028;2023-01-24T02:26:47;1.50;99.90
20921;DHT22;10620;52.472;21.028;2023-01-24T02:29:16;1.50;99.90
20921;DHT22;10620;52.472;21.028;2023-01-24T02:31:53;1.50;99.90
20921;DHT22;10620;52.472;21.028;2023-01-24T02:34:23;1.50;99.90
20921;DHT22;10620;52.472;21.028;2023-01-24T02:36:52;1.50;99.90
20921;DHT22;10620;52.472;21.028;2023-01-24T02:39:23;1.50;99.90
20921;DHT22;10620;52.472;21.028;2023-01-24T02:41:57;1.50;99.90
20921;DHT22;10620;52.472;21.028;2023-01-24T02:44:31;1.50;99.90
20921;DHT22;10620;52.472;21.028;2023-01-24T02:47:02;1.40;99.90
20921;DHT22;10620;52.472;21.028;2023-01-24T02:49:31;1.40;99.90
20921;DHT22;10620;52.472;21.028;2023-01-24T02:52:00;1.50;99.90
20921;DHT22;10620;52.472;21.028;2023-01-24T02:54:46;1.50;99.90
20921;DHT22;10620;52.472;21.028;2023-01-24T02:57:16;1.40;99.90
20921;DHT22;10620;52.472;21.028;2023-01-24T03:00:03;1.40;99.90
20921;DHT22;10620;52.472;21.028;2023-01-24T03:02:32;1.40;99.90
20921;DHT22;10620;52.472;21.028;2023-01-24T03:05:01;1.50;99.90
20921;DHT22;10620;52.472;21.028;2023-01-24T03:07:30;1.50;99.90
20921;DHT22;10620;52.472;21.028;2023-01-24T03:10:11;1.40;99.90
20921;DHT22;10620;52.472;21.028;2023-01-24T03:12:42;1.40;99.90
20921;DHT22;10620;52.472;21.028;2023-01-24T03:15:28;1.40;99.90
20921;DHT22;10620;52.472;21.028;2023-01-24T03:18:15;1.50;99.90
20921;DHT22;10620;52.472;21.028;2023-01-24T03:21:01;1.50;99.90
20921;DHT22;10620;52.472;21.028;2023-01-24T03:23:47;1.50;99.90
20921;DHT22;10620;52.472;21.028;2023-01-24T03:26:33;1.50;99.90
20921;DHT22;10620;52.472;21.028;2023-01-24T03:29:22;1.50;99.90
20921;DHT22;10620;52.472;21.028;2023-01-24T03:32:08;1.50;99.90
20921;DHT22;10620;52.472;21.028;2023-01-24T03:34:54;1.50;99.90
20921;DHT22;10620;52.472;21.028;2023-01-24T03:37:28;1.50;99.90
20921;DHT22;10620;52.472;21.028;2023-01-24T03:40:16;1.40;99.90
20921;DHT22;10620;52.472;21.028;2023-01-24T03:42:47;1.40;99.90
20921;DHT22;10620;52.472;21.028;2023-01-24T03:45:21;1.40;99.90
20921;DHT22;10620;52.472;21.028;2023-01-24T03:47:52;1.50;99.90
20921;DHT22;10620;52.472;21.028;2023-01-24T03:50:26;1.50;99.90
20921;DHT22;10620;52.472;21.028;2023-01-24T03:53:12;1.50;99.90
20921;DHT22;10620;52.472;21.028;2023-01-24T03:55:43;1.40;99.90
20921;DHT22;10620;52.472;21.028;2023-01-24T03:58:12;1.50;99.90
20921;DHT22;10620;52.472;21.028;2023-01-24T04:00:45;1.50;99.90
20921;DHT22;10620;52.472;21.028;2023-01-24T04:03:34;1.50;99.90
20921;DHT22;10620;52.472;21.028;2023-01-24T04:06:02;1.40;99.90
20921;DHT22;10620;52.472;21.028;2023-01-24T04:08:32;1.40;99.90
20921;DHT22;10620;52.472;21.028;2023-01-24T04:11:01;1.40;99.90
20921;DHT22;10620;52.472;21.028;2023-01-24T04:13:30;1.40;99.90
20921;DHT22;10620;52.472;21.028;2023-01-24T04:16:00;1.50;99.90
20921;DHT22;10620;52.472;21.028;2023-01-24T04:19:01;1.40;99.90
20921;DHT22;10620;52.472;21.028;2023-01-24T04:21:30;1.50;99.90
20921;DHT22;10620;52.472;21.028;2023-01-24T04:23:58;1.50;99.90
20921;DHT22;10620;52.472;21.028;2023-01-24T04:26:28;1.60;99.90
20921;DHT22;10620;52.472;21.028;2023-01-24T04:28:58;1.50;99.90
20921;DHT22;10620;52.472;21.028;2023-01-24T04:31:29;1.60;99.90
20921;DHT22;10620;52.472;21.028;2023-01-24T04:34:16;1.50;99.90
20921;DHT22;10620;52.472;21.028;2023-01-24T04:36:45;1.50;99.90
20921;DHT22;10620;52.472;21.028;2023-01-24T04:39:13;1.50;99.90
20921;DHT22;10620;52.472;21.028;2023-01-24T04:41:55;1.50;99.90
20921;DHT22;10620;52.472;21.028;2023-01-24T04:44:24;1.40;99.90
20921;DHT22;10620;52.472;21.028;2023-01-24T04:46:54;1.40;99.90
20921;DHT22;10620;52.472;21.028;2023-01-24T04:49:23;1.40;99.90
20921;DHT22;10620;52.472;21.028;2023-01-24T04:51:52;1.40;99.90
20921;DHT22;10620;52.472;21.028;2023-01-24T04:54:26;1.40;99.90
20921;DHT22;10620;52.472;21.028;2023-01-24T04:56:55;1.50;99.90
20921;DHT22;10620;52.472;21.028;2023-01-24T04:59:24;1.50;99.90
20921;DHT22;10620;52.472;21.028;2023-01-24T05:01:52;1.50;99.90
20921;DHT22;10620;52.472;21.028;2023-01-24T05:04:32;1.40;99.90
20921;DHT22;10620;52.472;21.028;2023-01-24T05:07:00;1.30;99.90
20921;DHT22;10620;52.472;21.028;2023-01-24T05:09:30;1.40;99.90
20921;DHT22;10620;52.472;21.028;2023-01-24T05:12:03;1.40;99.90
20921;DHT22;10620;52.472;21.028;2023-01-24T05:14:33;1.40;99.90
20921;DHT22;10620;52.472;21.028;2023-01-24T05:17:03;1.40;99.90
20921;DHT22;10620;52.472;21.028;2023-01-24T05:19:35;1.40;99.90
20921;DHT22;10620;52.472;21.028;2023-01-24T05:22:05;1.50;99.90
20921;DHT22;10620;52.472;21.028;2023-01-24T05:24:38;1.50;99.90
20921;DHT22;10620;52.472;21.028;2023-01-24T05:27:07;1.50;99.90
20921;DHT22;10620;52.472;21.028;2023-01-24T05:29:39;1.40;99.90
20921;DHT22;10620;52.472;21.028;2023-01-24T05:32:08;1.40;99.90
20921;DHT22;10620;52.472;21.028;2023-01-24T05:34:38;1.40;99.90
20921;DHT22;10620;52.472;21.028;2023-01-24T05:37:08;1.50;99.90
20921;DHT22;10620;52.472;21.028;2023-01-24T05:39:41;1.50;99.90
20921;DHT22;10620;52.472;21.028;2023-01-24T05:42:10;1.50;99.90
20921;DHT22;10620;52.472;21.028;2023-01-24T05:44:43;1.40;99.90
20921;DHT22;10620;52.472;21.028;2023-01-24T05:47:13;1.40;99.90
20921;DHT22;10620;52.472;21.028;2023-01-24T05:49:46;1.40;99.90
20921;DHT22;10620;52.472;21.028;2023-01-24T05:52:15;1.60;99.90
20921;DHT22;10620;52.472;21.028;2023-01-24T05:54:52;1.60;99.90
20921;DHT22;10620;52.472;21.028;2023-01-24T05:57:44;1.50;99.90
20921;DHT22;10620;52.472;21.028;2023-01-24T06:00:30;1.50;99.90
20921;DHT22;10620;52.472;21.028;2023-01-24T06:03:17;1.50;99.90
20921;DHT22;10620;52.472;21.028;2023-01-24T06:05:47;1.50;99.90
20921;DHT22;10620;52.472;21.028;2023-01-24T06:08:17;1.50;99.90
20921;DHT22;10620;52.472;21.028;2023-01-24T06:10:46;1.50;99.90
20921;DHT22;10620;52.472;21.028;2023-01-24T06:13:17;1.40;99.90
20921;DHT22;10620;52.472;21.028;2023-01-24T06:15:45;1.40;99.90
20921;DHT22;10620;52.472;21.028;2023-01-24T06:18:15;1.50;99.90
20921;DHT22;10620;52.472;21.028;2023-01-24T06:20:50;1.50;99.90
20921;DHT22;10620;52.472;21.028;2023-01-24T06:23:21;1.50;99.90
20921;DHT22;10620;52.472;21.028;2023-01-24T06:25:54;1.40;99.90
20921;DHT22;10620;52.472;21.028;2023-01-24T06:28:23;1.40;99.90
20921;DHT22;10620;52.472;21.028;2023-01-24T06:30:55;1.40;99.90
20921;DHT22;10620;52.472;21.028;2023-01-24T06:33:31;1.40;99.90
20921;DHT22;10620;52.472;21.028;2023-01-24T06:36:09;1.50;99.90
20921;DHT22;10620;52.472;21.028;2023-01-24T06:38:43;1.50;99.90
20921;DHT22;10620;52.472;21.028;2023-01-24T06:41:13;1.50;99.90
20921;DHT22;10620;52.472;21.028;2023-01-24T06:43:43;1.60;99.90
20921;DHT22;10620;52.472;21.028;2023-01-24T06:46:12;1.60;99.90
20921;DHT22;10620;52.472;21.028;2023-01-24T06:48:42;1.70;99.90
20921;DHT22;10620;52.472;21.028;2023-01-24T06:51:12;1.60;99.90
20921;DHT22;10620;52.472;21.028;2023-01-24T06:53:42;1.60;99.90
20921;DHT22;10620;52.472;21.028;2023-01-24T06:56:10;1.50;99.90
20921;DHT22;10620;52.472;21.028;2023-01-24T06:58:39;1.50;99.90
20921;DHT22;10620;52.472;21.028;2023-01-24T07:01:07;1.50;99.90
20921;DHT22;10620;52.472;21.028;2023-01-24T07:03:36;1.50;99.90
20921;DHT22;10620;52.472;21.028;2023-01-24T07:06:05;1.60;99.90
20921;DHT22;10620;52.472;21.028;2023-01-24T07:08:35;1.60;99.90
20921;DHT22;10620;52.472;21.028;2023-01-24T07:11:03;1.70;99.90
20921;DHT22;10620;52.472;21.028;2023-01-24T07:13:32;1.70;99.90
20921;DHT22;10620;52.472;21.028;2023-01-24T07:16:01;1.60;99.90
20921;DHT22;10620;52.472;21.028;2023-01-24T07:18:30;1.60;99.90
20921;DHT22;10620;52.472;21.028;2023-01-24T07:20:59;1.60;99.90
20921;DHT22;10620;52.472;21.028;2023-01-24T07:23:28;1.70;99.90
20921;DHT22;10620;52.472;21.028;2023-01-24T07:26:01;1.70;99.90
20921;DHT22;10620;52.472;21.028;2023-01-24T07:28:30;1.70;99.90
20921;DHT22;10620;52.472;21.028;2023-01-24T07:30:59;1.70;99.90
20921;DHT22;10620;52.472;21.028;2023-01-24T07:33:27;1.70;99.90
20921;DHT22;10620;52.472;21.028;2023-01-24T07:35:56;1.80;99.90
20921;DHT22;10620;52.472;21.028;2023-01-24T07:38:26;1.80;99.90
20921;DHT22;10620;52.472;21.028;2023-01-24T07:40:55;1.90;99.90
20921;DHT22;10620;52.472;21.028;2023-01-24T07:43:28;1.90;99.90
20921;DHT22;10620;52.472;21.028;2023-01-24T07:45:56;2.00;99.90
20921;DHT22;10620;52.472;21.028;2023-01-24T07:48:25;2.00;99.90
20921;DHT22;10620;52.472;21.028;2023-01-24T07:50:57;1.90;99.90
20921;DHT22;10620;52.472;21.028;2023-01-24T07:53:25;1.90;99.90
20921;DHT22;10620;52.472;21.028;2023-01-24T07:55:54;1.90;99.90
20921;DHT22;10620;52.472;21.028;2023-01-24T07:58:30;2.00;99.90
20921;DHT22;10620;52.472;21.028;2023-01-24T08:00:59;1.90;99.90
20921;DHT22;10620;52.472;21.028;2023-01-24T08:03:27;2.00;99.90
20921;DHT22;10620;52.472;21.028;2023-01-24T08:05:56;2.00;99.90
20921;DHT22;10620;52.472;21.028;2023-01-24T08:08:25;2.00;99.90
20921;DHT22;10620;52.472;21.028;2023-01-24T08:10:54;2.10;99.90
20921;DHT22;10620;52.472;21.028;2023-01-24T08:13:22;2.20;99.90
20921;DHT22;10620;52.472;21.028;2023-01-24T08:15:52;2.20;99.90
20921;DHT22;10620;52.472;21.028;2023-01-24T08:18:21;2.10;99.90
20921;DHT22;10620;52.472;21.028;2023-01-24T08:20:53;2.20;99.90
20921;DHT22;10620;52.472;21.028;2023-01-24T08:23:22;2.30;99.90
20921;DHT22;10620;52.472;21.028;2023-01-24T08:25:51;2.30;99.90
20921;DHT22;10620;52.472;21.028;2023-01-24T08:28:19;2.30;99.90
20921;DHT22;10620;52.472;21.028;2023-01-24T08:30:48;1.90;99.90
20921;DHT22;10620;52.472;21.028;2023-01-24T08:33:19;2.40;99.90
20921;DHT22;10620;52.472;21.028;2023-01-24T08:35:48;2.30;99.90
20921;DHT22;10620;52.472;21.028;2023-01-24T08:38:17;2.30;99.90
20921;DHT22;10620;52.472;21.028;2023-01-24T08:40:46;2.40;99.90
20921;DHT22;10620;52.472;21.028;2023-01-24T08:43:16;2.30;99.90
20921;DHT22;10620;52.472;21.028;2023-01-24T08:45:45;2.30;99.90
20921;DHT22;10620;52.472;21.028;2023-01-24T08:48:13;2.30;99.90
20921;DHT22;10620;52.472;21.028;2023-01-24T08:50:43;2.40;99.90
20921;DHT22;10620;52.472;21.028;2023-01-24T08:53:12;2.40;99.90
20921;DHT22;10620;52.472;21.028;2023-01-24T08:55:42;2.40;99.90
20921;DHT22;10620;52.472;21.028;2023-01-24T08:58:10;2.50;99.90
20921;DHT22;10620;52.472;21.028;2023-01-24T09:00:39;2.50;99.90
20921;DHT22;10620;52.472;21.028;2023-01-24T09:03:08;2.50;99.90
20921;DHT22;10620;52.472;21.028;2023-01-24T09:05:37;2.50;99.90
20921;DHT22;10620;52.472;21.028;2023-01-24T09:08:07;2.50;99.90
20921;DHT22;10620;52.472;21.028;2023-01-24T09:10:36;2.50;99.90
20921;DHT22;10620;52.472;21.028;2023-01-24T09:13:06;2.60;99.90
20921;DHT22;10620;52.472;21.028;2023-01-24T09:15:35;2.60;99.90
20921;DHT22;10620;52.472;21.028;2023-01-24T09:18:04;2.60;99.90
20921;DHT22;10620;52.472;21.028;2023-01-24T09:20:32;2.50;99.90
20921;DHT22;10620;52.472;21.028;2023-01-24T09:23:08;2.50;99.90
20921;DHT22;10620;52.472;21.028;2023-01-24T09:25:39;2.50;99.90
20921;DHT22;10620;52.472;21.028;2023-01-24T09:28:07;2.50;99.90
20921;DHT22;10620;52.472;21.028;2023-01-24T09:30:36;2.50;99.90
20921;DHT22;10620;52.472;21.028;2023-01-24T09:33:05;2.50;99.90
20921;DHT22;10620;52.472;21.028;2023-01-24T09:35:34;2.50;99.90
20921;DHT22;10620;52.472;21.028;2023-01-24T09:38:03;2.60;99.90
20921;DHT22;10620;52.472;21.028;2023-01-24T09:40:35;2.60;99.90
20921;DHT22;10620;52.472;21.028;2023-01-24T09:43:11;2.50;99.90
20921;DHT22;10620;52.472;21.028;2023-01-24T09:45:43;2.60;99.90
20921;DHT22;10620;52.472;21.028;2023-01-24T09:48:13;2.70;99.90
20921;DHT22;10620;52.472;21.028;2023-01-24T09:50:45;2.60;99.90
20921;DHT22;10620;52.472;21.028;2023-01-24T09:53:16;2.60;99.90
20921;DHT22;10620;52.472;21.028;2023-01-24T09:55:47;2.70;99.90
20921;DHT22;10620;52.472;21.028;2023-01-24T09:58:21;2.70;99.90
20921;DHT22;10620;52.472;21.028;2023-01-24T10:00:54;2.60;99.90
20921;DHT22;10620;52.472;21.028;2023-01-24T10:03:23;2.60;99.90
20921;DHT22;10620;52.472;21.028;2023-01-24T10:05:52;2.70;99.90
20921;DHT22;10620;52.472;21.028;2023-01-24T10:08:26;2.70;99.90
20921;DHT22;10620;52.472;21.028;2023-01-24T10:10:59;2.70;99.90
20921;DHT22;10620;52.472;21.028;2023-01-24T10:13:39;2.70;99.90
20921;DHT22;10620;52.472;21.028;2023-01-24T10:16:16;2.60;99.90
20921;DHT22;10620;52.472;21.028;2023-01-24T10:18:50;2.70;99.90
20921;DHT22;10620;52.472;21.028;2023-01-24T10:21:24;2.70;99.90
20921;DHT22;10620;52.472;21.028;2023-01-24T10:23:56;2.60;99.90
20921;DHT22;10620;52.472;21.028;2023-01-24T10:26:29;2.70;99.90
20921;DHT22;10620;52.472;21.028;2023-01-24T10:29:06;2.70;99.90
20921;DHT22;10620;52.472;21.028;2023-01-24T10:31:37;2.60;99.90
20921;DHT22;10620;52.472;21.028;2023-01-24T10:34:08;2.60;99.90
20921;DHT22;10620;52.472;21.028;2023-01-24T10:36:39;2.60;99.90
20921;DHT22;10620;52.472;21.028;2023-01-24T10:39:11;2.60;99.90
20921;DHT22;10620;52.472;21.028;2023-01-24T10:41:41;2.60;99.90
20921;DHT22;10620;52.472;21.028;2023-01-24T10:44:12;2.70;99.90
20921;DHT22;10620;52.472;21.028;2023-01-24T10:46:57;2.70;99.90
20921;DHT22;10620;52.472;21.028;2023-01-24T10:49:29;2.80;99.90
20921;DHT22;10620;52.472;21.028;2023-01-24T10:52:12;2.80;99.90
20921;DHT22;10620;52.472;21.028;2023-01-24T10:54:45;2.70;99.90
20921;DHT22;10620;52.472;21.028;2023-01-24T10:57:19;2.80;99.90
20921;DHT22;10620;52.472;21.028;2023-01-24T10:59:51;2.70;99.90
20921;DHT22;10620;52.472;21.028;2023-01-24T11:02:21;2.80;99.90
20921;DHT22;10620;52.472;21.028;2023-01-24T11:04:52;2.70;99.90
20921;DHT22;10620;52.472;21.028;2023-01-24T11:07:26;2.60;99.90
20921;DHT22;10620;52.472;21.028;2023-01-24T11:09:58;2.50;99.90
20921;DHT22;10620;52.472;21.028;2023-01-24T11:12:28;2.20;99.90
20921;DHT22;10620;52.472;21.028;2023-01-24T11:14:57;2.50;99.90
20921;DHT22;10620;52.472;21.028;2023-01-24T11:17:31;2.60;99.90
20921;DHT22;10620;52.472;21.028;2023-01-24T11:20:03;2.70;99.90
20921;DHT22;10620;52.472;21.028;2023-01-24T11:22:33;3.20;99.90
20921;DHT22;10620;52.472;21.028;2023-01-24T11:25:03;2.80;99.90
20921;DHT22;10620;52.472;21.028;2023-01-24T11:27:46;2.80;99.90
20921;DHT22;10620;52.472;21.028;2023-01-24T11:30:15;2.90;99.90
20921;DHT22;10620;52.472;21.028;2023-01-24T11:32:51;2.90;99.90
20921;DHT22;10620;52.472;21.028;2023-01-24T11:35:21;2.90;99.90
20921;DHT22;10620;52.472;21.028;2023-01-24T11:37:58;2.90;99.90
20921;DHT22;10620;52.472;21.028;2023-01-24T11:40:32;3.00;99.90
20921;DHT22;10620;52.472;21.028;2023-01-24T11:43:14;2.90;99.90
20921;DHT22;10620;52.472;21.028;2023-01-24T11:45:52;3.00;99.90
20921;DHT22;10620;52.472;21.028;2023-01-24T11:48:25;2.90;99.90
20921;DHT22;10620;52.472;21.028;2023-01-24T11:50:57;2.80;99.90
20921;DHT22;10620;52.472;21.028;2023-01-24T11:53:49;2.80;99.90
20921;DHT22;10620;52.472;21.028;2023-01-24T11:56:22;2.80;99.90
20921;DHT22;10620;52.472;21.028;2023-01-24T11:59:04;2.80;99.90
20921;DHT22;10620;52.472;21.028;2023-01-24T12:01:41;2.90;99.90
20921;DHT22;10620;52.472;21.028;2023-01-24T12:04:16;2.90;99.90
20921;DHT22;10620;52.472;21.028;2023-01-24T12:06:50;3.10;99.90
20921;DHT22;10620;52.472;21.028;2023-01-24T12:09:23;3.00;99.90
20921;DHT22;10620;52.472;21.028;2023-01-24T12:11:55;3.10;99.90
20921;DHT22;10620;52.472;21.028;2023-01-24T12:20:22;3.00;99.90
20921;DHT22;10620;52.472;21.028;2023-01-24T12:22:59;3.10;99.90
20921;DHT22;10620;52.472;21.028;2023-01-24T12:25:30;3.10;99.90
20921;DHT22;10620;52.472;21.028;2023-01-24T12:28:01;3.00;99.90
20921;DHT22;10620;52.472;21.028;2023-01-24T12:30:33;3.10;99.90
20921;DHT22;10620;52.472;21.028;2023-01-24T12:33:04;3.00;99.90
20921;DHT22;10620;52.472;21.028;2023-01-24T12:35:36;2.90;99.90
20921;DHT22;10620;52.472;21.028;2023-01-24T12:38:11;2.90;99.90
20921;DHT22;10620;52.472;21.028;2023-01-24T12:40:44;2.90;99.90
20921;DHT22;10620;52.472;21.028;2023-01-24T12:43:16;2.90;99.90
20921;DHT22;10620;52.472;21.028;2023-01-24T12:45:48;3.00;99.90
20921;DHT22;10620;52.472;21.028;2023-01-24T12:48:19;3.10;99.90
20921;DHT22;10620;52.472;21.028;2023-01-24T12:50:52;3.10;99.90
20921;DHT22;10620;52.472;21.028;2023-01-24T12:53:23;3.20;99.90
20921;DHT22;10620;52.472;21.028;2023-01-24T12:55:54;3.20;99.90
20921;DHT22;10620;52.472;21.028;2023-01-24T12:58:26;3.20;99.90
20921;DHT22;10620;52.472;21.028;2023-01-24T13:00:59;3.30;99.90
20921;DHT22;10620;52.472;21.028;2023-01-24T13:03:40;3.30;99.90
20921;DHT22;10620;52.472;21.028;2023-01-24T13:06:15;3.20;99.90
20921;DHT22;10620;52.472;21.028;2023-01-24T13:08:49;3.20;99.90
20921;DHT22;10620;52.472;21.028;2023-01-24T13:11:21;3.10;99.90
20921;DHT22;10620;52.472;21.028;2023-01-24T13:13:57;3.10;99.90
20921;DHT22;10620;52.472;21.028;2023-01-24T13:16:43;3.10;99.90
20921;DHT22;10620;52.472;21.028;2023-01-24T13:19:22;3.20;99.90
20921;DHT22;10620;52.472;21.028;2023-01-24T13:21:57;3.10;99.90
20921;DHT22;10620;52.472;21.028;2023-01-24T13:24:32;3.10;99.90
20921;DHT22;10620;52.472;21.028;2023-01-24T13:27:07;3.00;99.90
20921;DHT22;10620;52.472;21.028;2023-01-24T13:29:44;3.00;99.90
20921;DHT22;10620;52.472;21.028;2023-01-24T13:32:15;2.90;99.90
20921;DHT22;10620;52.472;21.028;2023-01-24T13:34:46;2.90;99.90
20921;DHT22;10620;52.472;21.028;2023-01-24T13:37:17;2.90;99.90
20921;DHT22;10620;52.472;21.028;2023-01-24T13:39:47;3.00;99.90
20921;DHT22;10620;52.472;21.028;2023-01-24T13:42:20;3.00;99.90
20921;DHT22;10620;52.472;21.028;2023-01-24T13:44:49;2.90;99.90
20921;DHT22;10620;52.472;21.028;2023-01-24T13:47:32;2.90;99.90
20921;DHT22;10620;52.472;21.028;2023-01-24T13:50:10;3.00;99.90
20921;DHT22;10620;52.472;21.028;2023-01-24T13:52:41;2.90;99.90
20921;DHT22;10620;52.472;21.028;2023-01-24T13:58:17;2.80;99.90
20921;DHT22;10620;52.472;21.028;2023-01-24T14:00:47;3.00;99.90
20921;DHT22;10620;52.472;21.028;2023-01-24T14:03:19;3.00;99.90
20921;DHT22;10620;52.472;21.028;2023-01-24T14:05:50;3.00;99.90
20921;DHT22;10620;52.472;21.028;2023-01-24T14:13:57;2.80;99.90
20921;DHT22;10620;52.472;21.028;2023-01-24T14:19:15;2.80;99.90
20921;DHT22;10620;52.472;21.028;2023-01-24T14:21:45;2.80;99.90
20921;DHT22;10620;52.472;21.028;2023-01-24T14:24:18;2.80;99.90
20921;DHT22;10620;52.472;21.028;2023-01-24T14:26:50;2.80;99.90
20921;DHT22;10620;52.472;21.028;2023-01-24T14:29:21;2.80;99.90
20921;DHT22;10620;52.472;21.028;2023-01-24T14:31:50;2.80;99.90
20921;DHT22;10620;52.472;21.028;2023-01-24T14:34:24;2.80;99.90
20921;DHT22;10620;52.472;21.028;2023-01-24T14:36:57;2.70;99.90
20921;DHT22;10620;52.472;21.028;2023-01-24T14:39:26;2.70;99.90
20921;DHT22;10620;52.472;21.028;2023-01-24T14:41:56;2.70;99.90
20921;DHT22;10620;52.472;21.028;2023-01-24T14:44:27;2.70;99.90
20921;DHT22;10620;52.472;21.028;2023-01-24T14:46:57;2.70;99.90
20921;DHT22;10620;52.472;21.028;2023-01-24T14:49:30;2.60;99.90
20921;DHT22;10620;52.472;21.028;2023-01-24T14:51:59;2.60;99.90
20921;DHT22;10620;52.472;21.028;2023-01-24T14:54:43;2.70;99.90
20921;DHT22;10620;52.472;21.028;2023-01-24T14:57:18;2.60;99.90
20921;DHT22;10620;52.472;21.028;2023-01-24T14:59:59;2.60;99.90
20921;DHT22;10620;52.472;21.028;2023-01-24T15:02:28;2.60;99.90
20921;DHT22;10620;52.472;21.028;2023-01-24T15:04:57;2.50;99.90
20921;DHT22;10620;52.472;21.028;2023-01-24T15:07:25;2.50;99.90
20921;DHT22;10620;52.472;21.028;2023-01-24T15:09:54;2.50;99.90
20921;DHT22;10620;52.472;21.028;2023-01-24T15:12:24;2.50;99.90
20921;DHT22;10620;52.472;21.028;2023-01-24T15:14:53;2.50;99.90
20921;DHT22;10620;52.472;21.028;2023-01-24T15:17:24;2.50;99.90
20921;DHT22;10620;52.472;21.028;2023-01-24T15:19:54;2.60;99.90
20921;DHT22;10620;52.472;21.028;2023-01-24T15:22:26;2.50;99.90
20921;DHT22;10620;52.472;21.028;2023-01-24T15:24:56;2.50;99.90
20921;DHT22;10620;52.472;21.028;2023-01-24T15:27:34;2.60;99.90
20921;DHT22;10620;52.472;21.028;2023-01-24T15:33:00;2.40;99.90
20921;DHT22;10620;52.472;21.028;2023-01-24T15:35:33;2.30;99.90
20921;DHT22;10620;52.472;21.028;2023-01-24T15:40:55;2.30;99.90
20921;DHT22;10620;52.472;21.028;2023-01-24T15:43:29;2.30;99.90
20921;DHT22;10620;52.472;21.028;2023-01-24T15:46:17;2.20;99.90
20921;DHT22;10620;52.472;21.028;2023-01-24T15:49:15;2.10;99.90
20921;DHT22;10620;52.472;21.028;2023-01-24T15:52:01;2.10;99.90
20921;DHT22;10620;52.472;21.028;2023-01-24T15:54:30;2.00;99.90
20921;DHT22;10620;52.472;21.028;2023-01-24T15:56:59;2.00;99.90
20921;DHT22;10620;52.472;21.028;2023-01-24T15:59:29;2.00;99.90
20921;DHT22;10620;52.472;21.028;2023-01-24T16:01:59;2.10;99.90
20921;DHT22;10620;52.472;21.028;2023-01-24T16:04:29;2.10;99.90
20921;DHT22;10620;52.472;21.028;2023-01-24T16:06:57;2.10;99.90
20921;DHT22;10620;52.472;21.028;2023-01-24T16:09:26;2.10;99.90
20921;DHT22;10620;52.472;21.028;2023-01-24T16:11:55;2.00;99.90
20921;DHT22;10620;52.472;21.028;2023-01-24T16:14:23;2.20;99.90
20921;DHT22;10620;52.472;21.028;2023-01-24T16:16:53;2.10;99.90
20921;DHT22;10620;52.472;21.028;2023-01-24T16:19:24;2.10;99.90
20921;DHT22;10620;52.472;21.028;2023-01-24T16:21:54;2.10;99.90
20921;DHT22;10620;52.472;21.028;2023-01-24T16:24:23;2.10;99.90